Van Nuys Airport
KVNY : rendu visible

Aérodrome :











RETROUVEZ-NOUS SUR...

 
LOGIN :

S'inscrire | Disclaimer

   EN    FR    IT 

 









Légende :    VFR   VFR Marginal   IFR   IFR Intensif   IFR Très Intensif
Visi : 
Plafond : 
>= 8 km
>= 3000ft
5 à 8 km
1000 à 3000 ft
1500m à 5 km
500 à 1000 ft
800 à 1500m
200 à 500 ft
< 800m
< 200 ft
Symboles :   Orages  Brouillard  Fortes neiges  Fortes précipitations  Vent > 20 kt






- Altitude de l'aérodrome : 802 ft


KVNY - Van Nuys

DERNIER METAR :
  • 200651Z AUTO 00000KT 10SM CLR 13/02 A3006 RMK AO2 SLP175 T01330022

METARs EXPIRÉS :
  • 200551Z 00000KT 10SM CLR 14/M01 A3006 RMK AO2 SLP173 T01441006 10194 20139 50007
  • 200451Z 00000KT 10SM CLR 14/01 A3007 RMK AO2 SLP180 T01440011

TAF KVNY
Valide du 20 à 06h jusqu'au 21 à 06h UTC


200530Z 2006/2106 VRB03KT P6SM OVC150
FM202000 17006KT P6SM OVC100
FM210000 VRB03KT P6SM OVC100



MET'MAP, la Météo Aéronautique d'un coup d'oeil ! - Copyright ORBIFLY Décembre 2007 - Disclaimer

ORBIFLY MET'MAP TEAM :

Programmation & Développement : Alexandra Zaïnal
Sur une idée originale de : Baudouin d'Aumeries
Assistance à la programmation : Marc-Olivier Méhu
Soutien technique & logistique : Manuel Goepfert

Contact : metmap@orbifly.com




SOURCES & CREDITS :

   NOAA       Earth
Advisory